sensor_id;sensor_type;location;lat;lon;timestamp;pressure;altitude;pressure_sealevel;temperature;humidity
38038;BME280;23843;51.320;12.340;2023-08-07T00:01:17;99261.13;;;16.24;100.00
38038;BME280;23843;51.320;12.340;2023-08-07T00:03:44;99261.38;;;16.21;100.00
38038;BME280;23843;51.320;12.340;2023-08-07T00:06:10;99259.84;;;16.19;100.00
38038;BME280;23843;51.320;12.340;2023-08-07T00:08:35;99265.06;;;16.20;100.00
38038;BME280;23843;51.320;12.340;2023-08-07T00:11:05;99263.38;;;16.19;100.00
38038;BME280;23843;51.320;12.340;2023-08-07T00:13:30;99258.19;;;16.18;100.00
38038;BME280;23843;51.320;12.340;2023-08-07T00:15:56;99259.00;;;16.18;100.00
38038;BME280;23843;51.320;12.340;2023-08-07T00:18:21;99264.22;;;16.20;100.00
38038;BME280;23843;51.320;12.340;2023-08-07T00:20:48;99266.72;;;16.21;100.00
38038;BME280;23843;51.320;12.340;2023-08-07T00:23:14;99264.06;;;16.21;100.00
38038;BME280;23843;51.320;12.340;2023-08-07T00:25:39;99271.41;;;16.19;100.00
38038;BME280;23843;51.320;12.340;2023-08-07T00:28:04;99269.41;;;16.21;100.00
38038;BME280;23843;51.320;12.340;2023-08-07T00:30:30;99267.72;;;16.20;100.00
38038;BME280;23843;51.320;12.340;2023-08-07T00:32:56;99263.09;;;16.22;100.00
38038;BME280;23843;51.320;12.340;2023-08-07T00:35:21;99264.63;;;16.25;100.00
38038;BME280;23843;51.320;12.340;2023-08-07T00:37:48;99268.00;;;16.27;100.00
38038;BME280;23843;51.320;12.340;2023-08-07T00:40:14;99264.63;;;16.25;100.00
38038;BME280;23843;51.320;12.340;2023-08-07T00:42:39;99269.66;;;16.28;100.00
38038;BME280;23843;51.320;12.340;2023-08-07T00:45:06;99266.84;;;16.30;100.00
38038;BME280;23843;51.320;12.340;2023-08-07T00:47:31;99265.16;;;16.29;100.00
38038;BME280;23843;51.320;12.340;2023-08-07T00:49:58;99265.84;;;16.31;100.00
38038;BME280;23843;51.320;12.340;2023-08-07T00:52:24;99261.50;;;16.30;100.00
38038;BME280;23843;51.320;12.340;2023-08-07T00:54:51;99268.53;;;16.31;100.00
38038;BME280;23843;51.320;12.340;2023-08-07T00:57:16;99270.50;;;16.29;100.00
38038;BME280;23843;51.320;12.340;2023-08-07T00:59:42;99264.88;;;16.32;100.00
38038;BME280;23843;51.320;12.340;2023-08-07T01:02:09;99270.22;;;16.32;100.00
38038;BME280;23843;51.320;12.340;2023-08-07T01:04:35;99275.28;;;16.35;100.00
38038;BME280;23843;51.320;12.340;2023-08-07T01:07:00;99273.31;;;16.37;100.00
38038;BME280;23843;51.320;12.340;2023-08-07T01:09:26;99271.59;;;16.36;100.00
38038;BME280;23843;51.320;12.340;2023-08-07T01:11:57;99266.25;;;16.36;100.00
38038;BME280;23843;51.320;12.340;2023-08-07T01:14:30;99277.94;;;16.35;100.00
38038;BME280;23843;51.320;12.340;2023-08-07T01:17:03;99275.28;;;16.35;100.00
38038;BME280;23843;51.320;12.340;2023-08-07T01:19:31;99277.38;;;16.31;100.00
38038;BME280;23843;51.320;12.340;2023-08-07T01:22:08;99277.38;;;16.31;100.00
38038;BME280;23843;51.320;12.340;2023-08-07T01:24:35;99281.19;;;16.29;100.00
38038;BME280;23843;51.320;12.340;2023-08-07T01:27:10;99272.34;;;16.28;100.00
38038;BME280;23843;51.320;12.340;2023-08-07T01:29:39;99271.63;;;16.26;100.00
38038;BME280;23843;51.320;12.340;2023-08-07T01:32:08;99272.22;;;16.30;100.00
38038;BME280;23843;51.320;12.340;2023-08-07T01:34:35;99275.84;;;16.29;100.00
38038;BME280;23843;51.320;12.340;2023-08-07T01:37:02;99278.69;;;16.27;100.00
38038;BME280;23843;51.320;12.340;2023-08-07T01:39:30;99284.88;;;16.27;100.00
38038;BME280;23843;51.320;12.340;2023-08-07T01:41:56;99280.78;;;16.23;100.00
38038;BME280;23843;51.320;12.340;2023-08-07T01:44:22;99280.94;;;16.22;100.00
38038;BME280;23843;51.320;12.340;2023-08-07T01:46:47;99281.78;;;16.22;100.00
38038;BME280;23843;51.320;12.340;2023-08-07T01:49:13;99274.47;;;16.24;100.00
38038;BME280;23843;51.320;12.340;2023-08-07T01:51:38;99286.84;;;16.25;100.00
38038;BME280;23843;51.320;12.340;2023-08-07T01:54:04;99277.28;;;16.23;100.00
38038;BME280;23843;51.320;12.340;2023-08-07T01:56:31;99286.00;;;16.25;100.00
38038;BME280;23843;51.320;12.340;2023-08-07T01:58:56;99288.09;;;16.21;100.00
38038;BME280;23843;51.320;12.340;2023-08-07T02:01:22;99296.41;;;16.18;100.00
38038;BME280;23843;51.320;12.340;2023-08-07T02:03:47;99298.38;;;16.16;100.00
38038;BME280;23843;51.320;12.340;2023-08-07T02:06:13;99299.38;;;16.15;100.00
38038;BME280;23843;51.320;12.340;2023-08-07T02:08:38;99301.94;;;16.17;100.00
38038;BME280;23843;51.320;12.340;2023-08-07T02:11:03;99300.78;;;16.19;100.00
38038;BME280;23843;51.320;12.340;2023-08-07T02:13:30;99292.22;;;16.16;100.00
38038;BME280;23843;51.320;12.340;2023-08-07T02:15:56;99302.06;;;16.15;100.00
38038;BME280;23843;51.320;12.340;2023-08-07T02:18:21;99297.00;;;16.12;100.00
38038;BME280;23843;51.320;12.340;2023-08-07T02:20:47;99293.78;;;16.09;100.00
38038;BME280;23843;51.320;12.340;2023-08-07T02:23:12;99292.81;;;16.00;100.00
38038;BME280;23843;51.320;12.340;2023-08-07T02:25:37;99303.53;;;15.90;100.00
38038;BME280;23843;51.320;12.340;2023-08-07T02:28:03;99294.22;;;15.84;100.00
38038;BME280;23843;51.320;12.340;2023-08-07T02:30:30;99304.50;;;15.79;100.00
38038;BME280;23843;51.320;12.340;2023-08-07T02:32:55;99305.09;;;15.73;100.00
38038;BME280;23843;51.320;12.340;2023-08-07T02:35:21;99312.50;;;15.70;100.00
38038;BME280;23843;51.320;12.340;2023-08-07T02:37:46;99313.63;;;15.67;100.00
38038;BME280;23843;51.320;12.340;2023-08-07T02:40:12;99314.44;;;15.68;100.00
38038;BME280;23843;51.320;12.340;2023-08-07T02:42:37;99313.34;;;15.70;100.00
38038;BME280;23843;51.320;12.340;2023-08-07T02:45:04;99321.38;;;15.70;100.00
38038;BME280;23843;51.320;12.340;2023-08-07T02:47:31;99323.06;;;15.71;100.00
38038;BME280;23843;51.320;12.340;2023-08-07T02:49:56;99324.91;;;15.71;100.00
38038;BME280;23843;51.320;12.340;2023-08-07T02:52:22;99325.00;;;15.69;100.00
38038;BME280;23843;51.320;12.340;2023-08-07T02:54:47;99329.38;;;15.70;100.00
38038;BME280;23843;51.320;12.340;2023-08-07T02:57:13;99322.31;;;15.69;100.00
38038;BME280;23843;51.320;12.340;2023-08-07T02:59:38;99324.63;;;15.74;100.00
38038;BME280;23843;51.320;12.340;2023-08-07T03:02:04;99330.78;;;15.74;100.00
38038;BME280;23843;51.320;12.340;2023-08-07T03:04:31;99322.94;;;15.73;100.00
38038;BME280;23843;51.320;12.340;2023-08-07T03:06:57;99334.47;;;15.73;100.00
38038;BME280;23843;51.320;12.340;2023-08-07T03:09:22;99329.13;;;15.73;100.00
38038;BME280;23843;51.320;12.340;2023-08-07T03:11:48;99326.28;;;15.75;100.00
38038;BME280;23843;51.320;12.340;2023-08-07T03:14:14;99327.16;;;15.75;100.00
38038;BME280;23843;51.320;12.340;2023-08-07T03:16:39;99334.16;;;15.76;100.00
38038;BME280;23843;51.320;12.340;2023-08-07T03:19:05;99342.88;;;15.78;100.00
38038;BME280;23843;51.320;12.340;2023-08-07T03:21:31;99340.91;;;15.80;100.00
38038;BME280;23843;51.320;12.340;2023-08-07T03:23:57;99339.09;;;15.81;100.00
38038;BME280;23843;51.320;12.340;2023-08-07T03:26:22;99345.41;;;15.80;100.00
38038;BME280;23843;51.320;12.340;2023-08-07T03:28:48;99345.25;;;15.81;100.00
38038;BME280;23843;51.320;12.340;2023-08-07T03:31:13;99351.31;;;15.83;100.00
38038;BME280;23843;51.320;12.340;2023-08-07T03:33:39;99353.97;;;15.83;100.00
38038;BME280;23843;51.320;12.340;2023-08-07T03:36:04;99347.66;;;15.84;100.00
38038;BME280;23843;51.320;12.340;2023-08-07T03:38:31;99354.41;;;15.89;100.00
38038;BME280;23843;51.320;12.340;2023-08-07T03:40:57;99358.06;;;15.88;100.00
38038;BME280;23843;51.320;12.340;2023-08-07T03:43:22;99356.94;;;15.90;100.00
38038;BME280;23843;51.320;12.340;2023-08-07T03:45:53;99367.19;;;15.95;100.00
38038;BME280;23843;51.320;12.340;2023-08-07T03:48:19;99371.53;;;15.96;100.00
38038;BME280;23843;51.320;12.340;2023-08-07T03:50:44;99377.19;;;15.93;100.00
38038;BME280;23843;51.320;12.340;2023-08-07T03:53:10;99384.31;;;15.92;100.00
38038;BME280;23843;51.320;12.340;2023-08-07T03:55:37;99377.19;;;15.93;100.00
38038;BME280;23843;51.320;12.340;2023-08-07T03:58:02;99376.47;;;15.91;100.00
38038;BME280;23843;51.320;12.340;2023-08-07T04:00:27;99383.06;;;15.87;100.00
38038;BME280;23843;51.320;12.340;2023-08-07T04:02:53;99380.56;;;15.85;100.00
38038;BME280;23843;51.320;12.340;2023-08-07T04:05:18;99384.19;;;15.84;100.00
38038;BME280;23843;51.320;12.340;2023-08-07T04:07:44;99378.03;;;15.83;100.00
38038;BME280;23843;51.320;12.340;2023-08-07T04:10:09;99381.53;;;15.84;100.00
38038;BME280;23843;51.320;12.340;2023-08-07T04:12:36;99383.34;;;15.83;100.00
38038;BME280;23843;51.320;12.340;2023-08-07T04:15:02;99381.09;;;15.79;100.00
38038;BME280;23843;51.320;12.340;2023-08-07T04:17:28;99386.44;;;15.79;100.00
38038;BME280;23843;51.320;12.340;2023-08-07T04:19:53;99389.66;;;15.82;100.00
38038;BME280;23843;51.320;12.340;2023-08-07T04:22:19;99394.88;;;15.84;100.00
38038;BME280;23843;51.320;12.340;2023-08-07T04:24:44;99393.03;;;15.84;100.00
38038;BME280;23843;51.320;12.340;2023-08-07T04:27:09;99397.41;;;15.86;100.00
38038;BME280;23843;51.320;12.340;2023-08-07T04:29:36;99397.13;;;15.89;100.00
38038;BME280;23843;51.320;12.340;2023-08-07T04:32:02;99402.47;;;15.89;100.00
38038;BME280;23843;51.320;12.340;2023-08-07T04:34:27;99400.50;;;15.91;100.00
38038;BME280;23843;51.320;12.340;2023-08-07T04:36:53;99411.03;;;15.92;100.00
38038;BME280;23843;51.320;12.340;2023-08-07T04:39:18;99408.94;;;15.96;100.00
38038;BME280;23843;51.320;12.340;2023-08-07T04:41:44;99417.50;;;16.09;100.00
38038;BME280;23843;51.320;12.340;2023-08-07T04:44:09;99421.28;;;16.16;100.00
38038;BME280;23843;51.320;12.340;2023-08-07T04:46:36;99420.16;;;16.19;100.00
38038;BME280;23843;51.320;12.340;2023-08-07T04:49:01;99429.19;;;16.18;100.00
38038;BME280;23843;51.320;12.340;2023-08-07T04:51:27;99430.03;;;16.18;100.00
38038;BME280;23843;51.320;12.340;2023-08-07T04:53:52;99432.41;;;16.21;100.00
38038;BME280;23843;51.320;12.340;2023-08-07T04:56:18;99435.78;;;16.23;100.00
38038;BME280;23843;51.320;12.340;2023-08-07T04:58:46;99429.88;;;16.20;100.00
38038;BME280;23843;51.320;12.340;2023-08-07T05:01:11;99430.72;;;16.20;100.00
38038;BME280;23843;51.320;12.340;2023-08-07T05:03:38;99431.28;;;16.24;100.00
38038;BME280;23843;51.320;12.340;2023-08-07T05:06:04;99418.78;;;16.24;100.00
38038;BME280;23843;51.320;12.340;2023-08-07T05:08:32;99428.47;;;16.25;100.00
38038;BME280;23843;51.320;12.340;2023-08-07T05:10:58;99435.53;;;16.26;100.00
38038;BME280;23843;51.320;12.340;2023-08-07T05:13:23;99432.84;;;16.26;100.00
38038;BME280;23843;51.320;12.340;2023-08-07T05:15:49;99428.88;;;16.31;100.00
38038;BME280;23843;51.320;12.340;2023-08-07T05:18:15;99441.28;;;16.41;100.00
38038;BME280;23843;51.320;12.340;2023-08-07T05:20:41;99441.66;;;16.56;100.00
38038;BME280;23843;51.320;12.340;2023-08-07T05:23:07;99442.59;;;16.75;100.00
38038;BME280;23843;51.320;12.340;2023-08-07T05:25:32;99436.06;;;16.97;100.00
38038;BME280;23843;51.320;12.340;2023-08-07T05:27:58;99448.88;;;17.03;100.00
38038;BME280;23843;51.320;12.340;2023-08-07T05:30:23;99440.28;;;16.99;100.00
38038;BME280;23843;51.320;12.340;2023-08-07T05:32:49;99446.66;;;16.98;100.00
38038;BME280;23843;51.320;12.340;2023-08-07T05:35:14;99445.81;;;16.98;100.00
38038;BME280;23843;51.320;12.340;2023-08-07T05:37:41;99444.97;;;16.97;100.00
38038;BME280;23843;51.320;12.340;2023-08-07T05:40:07;99448.75;;;16.95;100.00
38038;BME280;23843;51.320;12.340;2023-08-07T05:42:32;99447.38;;;16.90;100.00
38038;BME280;23843;51.320;12.340;2023-08-07T05:44:58;99453.56;;;16.91;100.00
38038;BME280;23843;51.320;12.340;2023-08-07T05:47:24;99456.91;;;17.03;100.00
38038;BME280;23843;51.320;12.340;2023-08-07T05:49:49;99459.56;;;17.13;100.00
38038;BME280;23843;51.320;12.340;2023-08-07T05:52:14;99460.75;;;17.28;100.00
38038;BME280;23843;51.320;12.340;2023-08-07T05:54:41;99467.34;;;17.33;100.00
38038;BME280;23843;51.320;12.340;2023-08-07T05:57:07;99458.59;;;17.41;100.00
38038;BME280;23843;51.320;12.340;2023-08-07T05:59:32;99459.84;;;17.65;100.00
38038;BME280;23843;51.320;12.340;2023-08-07T06:01:58;99464.97;;;17.86;100.00
38038;BME280;23843;51.320;12.340;2023-08-07T06:04:23;99464.59;;;17.99;100.00
38038;BME280;23843;51.320;12.340;2023-08-07T06:06:48;99468.56;;;17.94;100.00
38038;BME280;23843;51.320;12.340;2023-08-07T06:09:14;99463.91;;;17.96;100.00
38038;BME280;23843;51.320;12.340;2023-08-07T06:11:41;99463.06;;;18.14;100.00
38038;BME280;23843;51.320;12.340;2023-08-07T06:14:06;99459.53;;;18.31;100.00
38038;BME280;23843;51.320;12.340;2023-08-07T06:16:32;99475.22;;;18.44;100.00
38038;BME280;23843;51.320;12.340;2023-08-07T06:18:58;99473.69;;;18.42;100.00
38038;BME280;23843;51.320;12.340;2023-08-07T06:21:23;99479.66;;;18.35;100.00
38038;BME280;23843;51.320;12.340;2023-08-07T06:23:49;99494.53;;;18.30;100.00
38038;BME280;23843;51.320;12.340;2023-08-07T06:26:14;99485.28;;;18.24;100.00
38038;BME280;23843;51.320;12.340;2023-08-07T06:28:41;99491.50;;;18.25;100.00
38038;BME280;23843;51.320;12.340;2023-08-07T06:31:08;99482.13;;;18.29;100.00
38038;BME280;23843;51.320;12.340;2023-08-07T06:33:34;99487.41;;;18.38;100.00
38038;BME280;23843;51.320;12.340;2023-08-07T06:36:00;99492.84;;;18.47;100.00
38038;BME280;23843;51.320;12.340;2023-08-07T06:38:26;99498.72;;;18.68;100.00
38038;BME280;23843;51.320;12.340;2023-08-07T06:40:51;99485.97;;;18.88;100.00
38038;BME280;23843;51.320;12.340;2023-08-07T06:43:17;99495.81;;;19.06;100.00
38038;BME280;23843;51.320;12.340;2023-08-07T06:45:46;99500.03;;;19.08;100.00
38038;BME280;23843;51.320;12.340;2023-08-07T06:48:12;99496.84;;;19.39;100.00
38038;BME280;23843;51.320;12.340;2023-08-07T06:50:37;99497.91;;;19.97;100.00
38038;BME280;23843;51.320;12.340;2023-08-07T06:53:03;99499.50;;;20.32;100.00
38038;BME280;23843;51.320;12.340;2023-08-07T06:55:28;99497.16;;;20.62;100.00
38038;BME280;23843;51.320;12.340;2023-08-07T06:57:54;99501.22;;;20.66;100.00
38038;BME280;23843;51.320;12.340;2023-08-07T07:00:19;99504.06;;;20.64;100.00
38038;BME280;23843;51.320;12.340;2023-08-07T07:02:46;99506.59;;;20.66;100.00
38038;BME280;23843;51.320;12.340;2023-08-07T07:05:11;99512.47;;;20.86;100.00
38038;BME280;23843;51.320;12.340;2023-08-07T07:07:37;99508.16;;;21.32;100.00
38038;BME280;23843;51.320;12.340;2023-08-07T07:10:03;99510.78;;;22.89;95.51
38038;BME280;23843;51.320;12.340;2023-08-07T07:12:29;99512.50;;;24.30;89.59
38038;BME280;23843;51.320;12.340;2023-08-07T07:14:55;99517.06;;;24.94;77.88
38038;BME280;23843;51.320;12.340;2023-08-07T07:17:20;99514.38;;;25.22;78.67
38038;BME280;23843;51.320;12.340;2023-08-07T07:19:47;99518.81;;;25.71;73.43
38038;BME280;23843;51.320;12.340;2023-08-07T07:22:13;99528.94;;;25.91;74.85
38038;BME280;23843;51.320;12.340;2023-08-07T07:24:38;99523.19;;;25.72;73.63
38038;BME280;23843;51.320;12.340;2023-08-07T07:27:04;99533.78;;;25.26;77.98
38038;BME280;23843;51.320;12.340;2023-08-07T07:29:30;99534.16;;;25.51;74.66
38038;BME280;23843;51.320;12.340;2023-08-07T07:31:55;99528.38;;;25.04;81.10
38038;BME280;23843;51.320;12.340;2023-08-07T07:34:21;99538.00;;;24.57;70.87
38038;BME280;23843;51.320;12.340;2023-08-07T07:36:48;99541.63;;;24.28;78.95
38038;BME280;23843;51.320;12.340;2023-08-07T07:39:14;99551.03;;;23.96;76.84
38038;BME280;23843;51.320;12.340;2023-08-07T07:41:39;99540.22;;;23.66;76.87
38038;BME280;23843;51.320;12.340;2023-08-07T07:44:05;99551.34;;;23.56;78.64
38038;BME280;23843;51.320;12.340;2023-08-07T07:46:30;99546.50;;;23.81;76.21
38038;BME280;23843;51.320;12.340;2023-08-07T07:48:56;99555.38;;;24.26;70.72
38038;BME280;23843;51.320;12.340;2023-08-07T07:51:21;99558.59;;;25.01;72.48
38038;BME280;23843;51.320;12.340;2023-08-07T07:53:48;99561.16;;;25.09;62.83
38038;BME280;23843;51.320;12.340;2023-08-07T07:56:14;99550.31;;;26.14;61.56
38038;BME280;23843;51.320;12.340;2023-08-07T07:58:39;99546.50;;;27.29;62.94
38038;BME280;23843;51.320;12.340;2023-08-07T08:01:05;99551.22;;;27.87;54.54
38038;BME280;23843;51.320;12.340;2023-08-07T08:03:30;99562.16;;;27.54;55.77
38038;BME280;23843;51.320;12.340;2023-08-07T08:05:56;99552.97;;;27.48;56.98
38038;BME280;23843;51.320;12.340;2023-08-07T08:08:21;99550.13;;;27.82;57.00
38038;BME280;23843;51.320;12.340;2023-08-07T08:10:48;99545.78;;;27.67;56.61
38038;BME280;23843;51.320;12.340;2023-08-07T08:13:14;99554.03;;;26.94;52.58
38038;BME280;23843;51.320;12.340;2023-08-07T08:15:39;99568.16;;;26.36;52.72
38038;BME280;23843;51.320;12.340;2023-08-07T08:18:05;99567.06;;;26.24;55.54
38038;BME280;23843;51.320;12.340;2023-08-07T08:20:30;99564.41;;;25.89;56.30
38038;BME280;23843;51.320;12.340;2023-08-07T08:22:56;99554.16;;;25.50;55.82
38038;BME280;23843;51.320;12.340;2023-08-07T08:25:21;99564.75;;;25.16;57.01
38038;BME280;23843;51.320;12.340;2023-08-07T08:27:48;99576.22;;;24.90;61.47
38038;BME280;23843;51.320;12.340;2023-08-07T08:30:14;99564.34;;;24.91;60.02
38038;BME280;23843;51.320;12.340;2023-08-07T08:32:39;99571.63;;;24.91;61.99
38038;BME280;23843;51.320;12.340;2023-08-07T08:35:05;99584.75;;;25.37;58.87
38038;BME280;23843;51.320;12.340;2023-08-07T08:37:31;99573.19;;;25.91;58.17
38038;BME280;23843;51.320;12.340;2023-08-07T08:39:56;99576.06;;;25.83;56.97
38038;BME280;23843;51.320;12.340;2023-08-07T08:42:22;99577.94;;;26.24;59.92
38038;BME280;23843;51.320;12.340;2023-08-07T08:44:52;99578.66;;;25.98;59.82
38038;BME280;23843;51.320;12.340;2023-08-07T08:47:18;99586.31;;;26.29;56.80
38038;BME280;23843;51.320;12.340;2023-08-07T08:49:49;99586.03;;;27.05;55.87
38038;BME280;23843;51.320;12.340;2023-08-07T08:52:16;99588.53;;;27.47;53.17
38038;BME280;23843;51.320;12.340;2023-08-07T08:54:41;99590.38;;;27.73;52.00
38038;BME280;23843;51.320;12.340;2023-08-07T08:57:08;99587.41;;;27.81;50.23
38038;BME280;23843;51.320;12.340;2023-08-07T08:59:33;99597.34;;;27.22;49.42
38038;BME280;23843;51.320;12.340;2023-08-07T09:02:00;99600.53;;;26.44;48.76
38038;BME280;23843;51.320;12.340;2023-08-07T09:04:26;99607.56;;;25.84;55.41
38038;BME280;23843;51.320;12.340;2023-08-07T09:06:51;99605.94;;;25.27;53.16
38038;BME280;23843;51.320;12.340;2023-08-07T09:09:19;99603.09;;;24.92;57.24
38038;BME280;23843;51.320;12.340;2023-08-07T09:11:45;99600.22;;;24.72;58.14
38038;BME280;23843;51.320;12.340;2023-08-07T09:14:15;99604.78;;;24.71;57.34
38038;BME280;23843;51.320;12.340;2023-08-07T09:16:41;99608.50;;;25.13;58.28
38038;BME280;23843;51.320;12.340;2023-08-07T09:19:08;99610.09;;;25.51;57.43
38038;BME280;23843;51.320;12.340;2023-08-07T09:21:34;99609.41;;;26.66;55.89
38038;BME280;23843;51.320;12.340;2023-08-07T09:24:00;99603.13;;;27.92;48.16
38038;BME280;23843;51.320;12.340;2023-08-07T09:26:25;99610.50;;;29.07;50.53
38038;BME280;23843;51.320;12.340;2023-08-07T09:28:51;99603.28;;;29.81;48.32
38038;BME280;23843;51.320;12.340;2023-08-07T09:31:17;99604.13;;;30.00;49.52
38038;BME280;23843;51.320;12.340;2023-08-07T09:33:48;99613.84;;;29.96;43.45
38038;BME280;23843;51.320;12.340;2023-08-07T09:36:18;99611.66;;;30.05;47.23
38038;BME280;23843;51.320;12.340;2023-08-07T09:38:49;99618.97;;;30.23;47.02
38038;BME280;23843;51.320;12.340;2023-08-07T09:41:17;99610.66;;;30.18;46.80
38038;BME280;23843;51.320;12.340;2023-08-07T09:43:43;99612.69;;;30.22;43.22
38038;BME280;23843;51.320;12.340;2023-08-07T09:46:08;99616.47;;;30.21;42.33
38038;BME280;23843;51.320;12.340;2023-08-07T09:48:39;99618.00;;;30.36;40.96
38038;BME280;23843;51.320;12.340;2023-08-07T09:51:05;99610.28;;;30.14;45.28
38038;BME280;23843;51.320;12.340;2023-08-07T09:53:32;99623.34;;;29.75;44.42
38038;BME280;23843;51.320;12.340;2023-08-07T09:55:58;99616.72;;;29.14;41.99
38038;BME280;23843;51.320;12.340;2023-08-07T09:58:24;99619.22;;;28.84;43.44
38038;BME280;23843;51.320;12.340;2023-08-07T10:00:50;99612.72;;;29.17;43.99
38038;BME280;23843;51.320;12.340;2023-08-07T10:03:16;99606.50;;;28.78;42.16
38038;BME280;23843;51.320;12.340;2023-08-07T10:05:42;99606.66;;;28.00;45.67
38038;BME280;23843;51.320;12.340;2023-08-07T10:08:08;99620.38;;;27.26;44.83
38038;BME280;23843;51.320;12.340;2023-08-07T10:10:35;99621.72;;;26.69;47.02
38038;BME280;23843;51.320;12.340;2023-08-07T10:13:02;99627.97;;;26.08;48.44
38038;BME280;23843;51.320;12.340;2023-08-07T10:15:28;99636.13;;;25.80;50.22
38038;BME280;23843;51.320;12.340;2023-08-07T10:17:54;99639.22;;;25.42;51.41
38038;BME280;23843;51.320;12.340;2023-08-07T10:22:46;99633.69;;;24.64;53.43
38038;BME280;23843;51.320;12.340;2023-08-07T10:25:11;99638.50;;;24.32;54.76
38038;BME280;23843;51.320;12.340;2023-08-07T10:27:40;99645.53;;;24.12;55.45
38038;BME280;23843;51.320;12.340;2023-08-07T10:30:10;99637.47;;;24.19;56.66
38038;BME280;23843;51.320;12.340;2023-08-07T10:32:37;99641.34;;;24.09;56.73
38038;BME280;23843;51.320;12.340;2023-08-07T10:35:03;99637.50;;;23.89;56.49
38038;BME280;23843;51.320;12.340;2023-08-07T10:37:32;99648.84;;;23.69;57.67
38038;BME280;23843;51.320;12.340;2023-08-07T10:40:01;99638.94;;;23.47;58.06
38038;BME280;23843;51.320;12.340;2023-08-07T10:42:27;99630.53;;;23.27;58.49
38038;BME280;23843;51.320;12.340;2023-08-07T10:44:54;99632.13;;;22.98;59.75
38038;BME280;23843;51.320;12.340;2023-08-07T10:47:32;99634.19;;;22.88;60.58
38038;BME280;23843;51.320;12.340;2023-08-07T10:49:58;99638.84;;;22.94;59.60
38038;BME280;23843;51.320;12.340;2023-08-07T10:52:24;99645.78;;;23.20;59.61
38038;BME280;23843;51.320;12.340;2023-08-07T10:54:50;99635.38;;;23.32;58.36
38038;BME280;23843;51.320;12.340;2023-08-07T10:57:16;99637.06;;;23.33;57.77
38038;BME280;23843;51.320;12.340;2023-08-07T10:59:49;99638.53;;;23.35;58.13
38038;BME280;23843;51.320;12.340;2023-08-07T11:02:23;99632.84;;;23.30;59.00
38038;BME280;23843;51.320;12.340;2023-08-07T11:04:49;99634.34;;;23.33;59.03
38038;BME280;23843;51.320;12.340;2023-08-07T11:07:23;99629.50;;;23.43;57.86
38038;BME280;23843;51.320;12.340;2023-08-07T11:09:48;99621.78;;;23.55;58.10
38038;BME280;23843;51.320;12.340;2023-08-07T11:12:14;99627.88;;;23.57;58.09
38038;BME280;23843;51.320;12.340;2023-08-07T11:14:40;99623.59;;;23.77;57.84
38038;BME280;23843;51.320;12.340;2023-08-07T11:17:06;99622.75;;;23.91;56.86
38038;BME280;23843;51.320;12.340;2023-08-07T11:19:33;99619.13;;;23.99;56.79
38038;BME280;23843;51.320;12.340;2023-08-07T11:21:58;99621.75;;;23.92;55.38
38038;BME280;23843;51.320;12.340;2023-08-07T11:24:26;99622.88;;;23.83;55.49
38038;BME280;23843;51.320;12.340;2023-08-07T11:26:52;99623.69;;;23.69;55.74
38038;BME280;23843;51.320;12.340;2023-08-07T11:29:18;99626.75;;;23.51;56.14
38038;BME280;23843;51.320;12.340;2023-08-07T11:31:43;99630.94;;;23.39;56.92
38038;BME280;23843;51.320;12.340;2023-08-07T11:34:10;99631.19;;;23.29;57.69
38038;BME280;23843;51.320;12.340;2023-08-07T11:36:41;99635.63;;;23.22;57.91
38038;BME280;23843;51.320;12.340;2023-08-07T11:39:07;99637.44;;;23.29;58.57
38038;BME280;23843;51.320;12.340;2023-08-07T11:41:32;99648.91;;;23.46;58.65
38038;BME280;23843;51.320;12.340;2023-08-07T11:43:58;99643.72;;;23.60;57.97
38038;BME280;23843;51.320;12.340;2023-08-07T11:46:23;99634.81;;;23.74;57.96
38038;BME280;23843;51.320;12.340;2023-08-07T11:48:49;99641.59;;;23.85;56.10
38038;BME280;23843;51.320;12.340;2023-08-07T11:51:17;99639.56;;;23.87;56.48
38038;BME280;23843;51.320;12.340;2023-08-07T11:53:43;99635.34;;;23.84;56.32
38038;BME280;23843;51.320;12.340;2023-08-07T11:56:10;99640.50;;;23.79;56.66
38038;BME280;23843;51.320;12.340;2023-08-07T11:58:37;99636.69;;;23.74;56.51
38038;BME280;23843;51.320;12.340;2023-08-07T12:01:06;99630.75;;;23.70;57.49
38038;BME280;23843;51.320;12.340;2023-08-07T12:03:36;99633.97;;;23.74;58.06
38038;BME280;23843;51.320;12.340;2023-08-07T12:06:03;99620.97;;;23.69;56.96
38038;BME280;23843;51.320;12.340;2023-08-07T12:08:31;99629.75;;;23.71;57.60
38038;BME280;23843;51.320;12.340;2023-08-07T12:11:01;99633.00;;;23.66;57.58
38038;BME280;23843;51.320;12.340;2023-08-07T12:13:27;99637.47;;;23.59;58.71
38038;BME280;23843;51.320;12.340;2023-08-07T12:15:53;99642.09;;;23.50;59.02
38038;BME280;23843;51.320;12.340;2023-08-07T12:18:19;99635.47;;;23.53;58.76
38038;BME280;23843;51.320;12.340;2023-08-07T12:20:45;99644.75;;;23.59;59.02
38038;BME280;23843;51.320;12.340;2023-08-07T12:23:13;99645.75;;;23.58;59.06
38038;BME280;23843;51.320;12.340;2023-08-07T12:25:39;99640.81;;;23.46;59.31
38038;BME280;23843;51.320;12.340;2023-08-07T12:28:06;99645.31;;;23.31;59.41
38038;BME280;23843;51.320;12.340;2023-08-07T12:30:34;99637.63;;;23.43;60.31
38038;BME280;23843;51.320;12.340;2023-08-07T12:32:59;99629.63;;;23.49;60.53
38038;BME280;23843;51.320;12.340;2023-08-07T12:35:24;99639.94;;;23.31;59.81
38038;BME280;23843;51.320;12.340;2023-08-07T12:37:50;99654.06;;;23.18;59.69
38038;BME280;23843;51.320;12.340;2023-08-07T12:40:16;99653.53;;;23.23;58.72
38038;BME280;23843;51.320;12.340;2023-08-07T12:42:41;99650.38;;;23.34;58.46